createdAt,value
2023-05-17T00:00:17.299Z,100466.31
2023-05-17T00:01:22.012Z,100472.69
2023-05-17T00:02:26.607Z,100476.26
2023-05-17T00:03:31.632Z,100476.26
2023-05-17T00:04:36.577Z,100475.00
2023-05-17T00:05:41.222Z,100469.39
2023-05-17T00:06:45.722Z,100470.16
2023-05-17T00:07:49.969Z,100472.97
2023-05-17T00:08:54.908Z,100470.16
2023-05-17T00:09:59.731Z,100469.67
2023-05-17T00:11:04.818Z,100472.48
2023-05-17T00:12:09.903Z,100473.98
2023-05-17T00:13:15.051Z,100476.79
2023-05-17T00:14:20.161Z,100474.51
2023-05-17T00:15:24.901Z,100475.48
2023-05-17T00:16:30.260Z,100478.00
2023-05-17T00:17:35.644Z,100472.89
2023-05-17T00:18:40.767Z,100476.95
2023-05-17T00:19:46.334Z,100476.95
2023-05-17T00:20:50.881Z,100473.10
2023-05-17T00:21:55.856Z,100476.67
2023-05-17T00:23:00.545Z,100480.24
2023-05-17T00:24:05.861Z,100479.75
2023-05-17T00:25:11.328Z,100480.24
2023-05-17T00:26:18.041Z,100476.67
2023-05-17T00:27:22.803Z,100483.81
2023-05-17T00:28:27.348Z,100485.07
2023-05-17T00:29:31.923Z,100484.30
2023-05-17T00:30:37.255Z,100478.70
2023-05-17T00:31:42.470Z,100487.87
2023-05-17T00:32:47.579Z,100487.38
2023-05-17T00:33:52.844Z,100481.02
2023-05-17T00:34:58.159Z,100484.58
2023-05-17T00:36:03.236Z,100485.07
2023-05-17T00:37:08.238Z,100492.70
2023-05-17T00:38:13.331Z,100488.64
2023-05-17T00:39:17.929Z,100493.47
2023-05-17T00:40:22.651Z,100488.64
2023-05-17T00:41:27.383Z,100483.05
2023-05-17T00:42:32.727Z,100490.19
2023-05-17T00:43:37.918Z,100490.95
2023-05-17T00:44:42.988Z,100486.89
2023-05-17T00:45:47.984Z,100486.12
2023-05-17T00:46:52.702Z,100495.30
2023-05-17T00:47:57.585Z,100492.98
2023-05-17T00:49:03.306Z,100493.75
2023-05-17T00:50:08.942Z,100498.09
2023-05-17T00:51:13.953Z,100491.23
2023-05-17T00:52:18.494Z,100487.95
2023-05-17T00:53:23.756Z,100487.17
2023-05-17T00:54:28.451Z,100492.01
2023-05-17T00:55:33.613Z,100493.55
2023-05-17T00:56:38.020Z,100491.52
2023-05-17T00:57:43.233Z,100485.92
2023-05-17T00:58:48.346Z,100486.69
2023-05-17T00:59:53.497Z,100487.45
2023-05-17T01:00:58.674Z,100486.20
2023-05-17T01:02:03.342Z,100487.73
2023-05-17T01:03:08.526Z,100487.22
2023-05-17T01:04:13.619Z,100492.82
2023-05-17T01:05:18.869Z,100494.88
2023-05-17T01:06:23.948Z,100489.28
2023-05-17T01:07:28.770Z,100497.68
2023-05-17T01:08:33.971Z,100492.08
2023-05-17T01:09:39.229Z,100490.80
2023-05-17T01:11:11.996Z,100483.16
2023-05-17T01:16:37.664Z,100484.17
2023-05-17T01:19:01.102Z,100482.18
2023-05-17T01:20:25.422Z,100482.06
2023-05-17T01:21:48.410Z,100491.73
2023-05-17T01:23:07.692Z,100486.61
2023-05-17T01:24:28.496Z,100488.64
2023-05-17T01:26:49.669Z,100482.67
2023-05-17T01:27:54.723Z,100490.47
2023-05-17T01:28:59.892Z,100486.89
2023-05-17T01:30:04.651Z,100484.09
2023-05-17T01:31:09.984Z,100486.89
2023-05-17T01:32:14.353Z,100483.33
2023-05-17T01:33:20.468Z,100486.12
2023-05-17T01:34:28.040Z,100490.47
2023-05-17T01:35:33.451Z,100490.75
2023-05-17T01:36:38.645Z,100485.92
2023-05-17T01:37:43.119Z,100484.66
2023-05-17T01:38:47.803Z,100488.23
2023-05-17T01:39:52.926Z,100486.97
2023-05-17T01:41:19.492Z,100486.97
2023-05-17T01:42:25.657Z,100492.08
2023-05-17T01:43:46.076Z,100484.94
2023-05-17T01:46:08.344Z,100487.85
2023-05-17T01:47:16.234Z,100485.70
2023-05-17T01:48:27.441Z,100483.68
2023-05-17T01:49:34.649Z,100486.48
2023-05-17T01:50:40.026Z,100484.42
2023-05-17T01:53:05.277Z,100485.82
2023-05-17T01:54:10.391Z,100481.63
2023-05-17T01:55:21.588Z,100485.19
2023-05-17T01:56:28.286Z,100491.56
2023-05-17T01:57:35.546Z,100488.76
2023-05-17T01:58:47.523Z,100487.98
2023-05-17T01:59:51.971Z,100484.42
2023-05-17T02:00:58.562Z,100483.68
2023-05-17T02:02:05.249Z,100487.98
2023-05-17T02:03:09.965Z,100493.59
2023-05-17T02:04:12.931Z,100490.80
2023-05-17T02:05:18.068Z,100493.34
2023-05-17T02:06:23.141Z,100485.43
2023-05-17T02:07:28.151Z,100494.32
2023-05-17T02:08:32.805Z,100491.52
2023-05-17T02:09:37.507Z,100489.20
2023-05-17T02:10:43.136Z,100491.23
2023-05-17T02:11:47.935Z,100490.19
2023-05-17T02:12:52.478Z,100493.47
2023-05-17T02:13:57.848Z,100491.94
2023-05-17T02:15:03.008Z,100493.68
2023-05-17T02:16:09.096Z,100489.83
2023-05-17T02:17:13.915Z,100488.28
2023-05-17T02:18:18.921Z,100492.34
2023-05-17T02:19:24.447Z,100492.34
2023-05-17T02:20:29.577Z,100496.43
2023-05-17T02:21:34.225Z,100501.52
2023-05-17T02:22:40.116Z,100503.29
2023-05-17T02:23:45.286Z,100499.72
2023-05-17T02:24:50.604Z,100497.41
2023-05-17T02:25:55.186Z,100497.13
2023-05-17T02:26:59.924Z,100505.52
2023-05-17T02:28:04.517Z,100493.55
2023-05-17T02:29:09.660Z,100497.89
2023-05-17T02:30:17.673Z,100499.16
2023-05-17T02:31:20.948Z,100501.47
2023-05-17T02:32:27.972Z,100495.09
2023-05-17T02:33:33.166Z,100495.09
2023-05-17T02:34:37.565Z,100501.47
2023-05-17T02:35:42.857Z,100495.09
2023-05-17T02:36:48.121Z,100501.47
2023-05-17T02:37:53.311Z,100505.03
2023-05-17T02:38:58.539Z,100507.84
2023-05-17T02:40:03.682Z,100502.23
2023-05-17T02:41:08.708Z,100506.30
2023-05-17T02:42:13.288Z,100519.03
2023-05-17T02:43:17.965Z,100509.86
2023-05-17T02:44:23.075Z,100508.61
2023-05-17T02:45:27.858Z,100511.41
2023-05-17T02:46:33.442Z,100518.27
2023-05-17T02:47:38.737Z,100521.84
2023-05-17T02:48:43.125Z,100518.75
2023-05-17T02:49:49.391Z,100520.01
2023-05-17T02:50:55.685Z,100512.87
2023-05-17T02:56:16.874Z,100520.98
2023-05-17T02:57:21.708Z,100522.23
2023-05-17T02:58:25.446Z,100520.98
2023-05-17T02:59:30.517Z,100519.44
2023-05-17T03:00:35.865Z,100517.09
2023-05-17T03:01:41.053Z,100521.92
2023-05-17T03:02:45.775Z,100527.52
2023-05-17T03:03:54.131Z,100523.95
2023-05-17T03:04:58.724Z,100521.16
2023-05-17T03:06:04.981Z,100517.58
2023-05-17T03:07:10.004Z,100517.09
2023-05-17T03:08:15.592Z,100525.81
2023-05-17T03:09:20.869Z,100526.09
2023-05-17T03:10:27.717Z,100519.23
2023-05-17T03:11:33.004Z,100523.86
2023-05-17T03:12:38.440Z,100515.95
2023-05-17T03:13:42.610Z,100521.84
2023-05-17T03:14:48.440Z,100510.15
2023-05-17T03:15:53.556Z,100523.66
2023-05-17T03:16:58.125Z,100516.28
2023-05-17T03:18:02.998Z,100517.83
2023-05-17T03:19:08.744Z,100533.94
2023-05-17T03:20:14.073Z,100517.91
2023-05-17T03:21:19.304Z,100523.78
2023-05-17T03:22:24.270Z,100523.58
2023-05-17T03:23:29.959Z,100524.64
2023-05-17T03:24:39.423Z,100524.92
2023-05-17T03:25:45.120Z,100519.85
2023-05-17T03:26:49.971Z,100521.67
2023-05-17T03:27:54.797Z,100523.50
2023-05-17T03:28:59.523Z,100522.52
2023-05-17T03:30:04.045Z,100524.83
2023-05-17T03:31:10.086Z,100534.00
2023-05-17T03:32:15.142Z,100522.31
2023-05-17T03:33:22.082Z,100525.11
2023-05-17T03:34:26.968Z,100530.99
2023-05-17T03:35:31.618Z,100534.05
2023-05-17T03:36:37.675Z,100540.42
2023-05-17T03:37:42.021Z,100539.94
2023-05-17T03:38:47.462Z,100541.75
2023-05-17T03:39:52.186Z,100543.30
2023-05-17T03:41:02.346Z,100546.88
2023-05-17T03:42:08.452Z,100542.03
2023-05-17T03:43:13.416Z,100536.71
2023-05-17T03:44:19.791Z,100548.20
2023-05-17T03:45:24.987Z,100543.65
2023-05-17T03:46:30.196Z,100542.39
2023-05-17T03:47:35.946Z,100541.89
2023-05-17T03:48:42.200Z,100547.27
2023-05-17T03:49:48.393Z,100551.39
2023-05-17T03:50:53.162Z,100545.30
2023-05-17T03:51:58.230Z,100552.72
2023-05-17T03:53:02.713Z,100545.36
2023-05-17T03:54:07.467Z,100550.76
2023-05-17T03:55:12.181Z,100553.84
2023-05-17T03:56:17.489Z,100545.19
2023-05-17T03:57:23.103Z,100556.95
2023-05-17T03:58:27.811Z,100556.95
2023-05-17T03:59:33.422Z,100555.20
2023-05-17T04:00:38.699Z,100559.05
2023-05-17T04:01:44.657Z,100551.72
2023-05-17T04:02:52.436Z,100559.14
2023-05-17T04:03:56.845Z,100566.54
2023-05-17T04:05:01.685Z,100560.16
2023-05-17T04:06:08.035Z,100552.80
2023-05-17T04:07:13.685Z,100557.91
2023-05-17T04:08:20.100Z,100568.91
2023-05-17T04:09:25.190Z,100558.74
2023-05-17T04:10:30.048Z,100555.17
2023-05-17T04:11:35.018Z,100566.66
2023-05-17T04:12:39.612Z,100563.09
2023-05-17T04:13:44.719Z,100562.59
2023-05-17T04:14:49.804Z,100573.31
2023-05-17T04:15:54.971Z,100570.79
2023-05-17T04:16:59.935Z,100576.92
2023-05-17T04:18:04.702Z,100575.44
2023-05-17T04:19:10.017Z,100572.14
2023-05-17T04:20:13.898Z,100580.06
2023-05-17T04:21:19.436Z,100579.30
2023-05-17T04:22:24.615Z,100581.33
2023-05-17T04:23:30.414Z,100582.59
2023-05-17T04:24:34.806Z,100584.41
2023-05-17T04:25:39.391Z,100577.81
2023-05-17T04:26:45.905Z,100581.66
2023-05-17T04:27:51.086Z,100578.85
2023-05-17T04:28:57.013Z,100590.10
2023-05-17T04:30:02.286Z,100587.08
2023-05-17T04:31:09.868Z,100592.25
2023-05-17T04:32:16.189Z,100594.06
2023-05-17T04:33:20.827Z,100591.77
2023-05-17T04:34:25.872Z,100595.12
2023-05-17T04:35:31.109Z,100587.52
2023-05-17T04:36:36.651Z,100598.03
2023-05-17T04:37:41.067Z,100592.93
2023-05-17T04:38:56.606Z,100592.20
2023-05-17T04:40:03.196Z,100588.67
2023-05-17T04:41:09.536Z,100592.55
2023-05-17T04:42:15.319Z,100591.78
2023-05-17T04:43:21.422Z,100590.78
2023-05-17T04:44:26.265Z,100593.34
2023-05-17T04:45:31.181Z,100601.03
2023-05-17T04:46:36.384Z,100597.23
2023-05-17T04:47:41.171Z,100601.34
2023-05-17T04:48:45.550Z,100606.73
2023-05-17T04:49:50.590Z,100603.42
2023-05-17T04:50:56.099Z,100604.94
2023-05-17T04:52:01.227Z,100603.17
2023-05-17T04:53:06.144Z,100605.20
2023-05-17T04:54:10.792Z,100600.86
2023-05-17T04:55:15.820Z,100609.81
2023-05-17T04:56:21.507Z,100609.05
2023-05-17T04:57:26.510Z,100610.05
2023-05-17T04:58:33.438Z,100609.83
2023-05-17T04:59:38.523Z,100607.02
2023-05-17T05:00:43.785Z,100604.97
2023-05-17T05:01:48.477Z,100607.28
2023-05-17T05:02:53.252Z,100611.40
2023-05-17T05:03:58.929Z,100616.52
2023-05-17T05:05:05.300Z,100610.13
2023-05-17T05:06:12.829Z,100614.20
2023-05-17T05:07:18.469Z,100615.48
2023-05-17T05:08:23.392Z,100617.02
2023-05-17T05:09:29.481Z,100620.87
2023-05-17T05:10:34.084Z,100616.55
2023-05-17T05:11:39.120Z,100619.87
2023-05-17T05:12:44.677Z,100619.38
2023-05-17T05:13:49.194Z,100614.79
2023-05-17T05:14:53.885Z,100613.02
2023-05-17T05:15:59.040Z,100619.41
2023-05-17T05:17:03.684Z,100613.55
2023-05-17T05:18:08.822Z,100611.24
2023-05-17T05:19:13.585Z,100614.55
2023-05-17T05:20:19.954Z,100621.68
2023-05-17T05:21:24.665Z,100612.98
2023-05-17T05:22:29.371Z,100617.06
2023-05-17T05:23:33.988Z,100622.19
2023-05-17T05:24:39.123Z,100616.06
2023-05-17T05:25:45.777Z,100624.99
2023-05-17T05:26:51.122Z,100619.87
2023-05-17T05:27:56.132Z,100618.60
2023-05-17T05:29:02.346Z,100625.49
2023-05-17T05:30:07.086Z,100628.03
2023-05-17T05:31:12.390Z,100618.83
2023-05-17T05:32:19.302Z,100626.76
2023-05-17T05:33:24.033Z,100625.73
2023-05-17T05:34:29.258Z,100622.92
2023-05-17T05:35:33.725Z,100622.41
2023-05-17T05:36:39.363Z,100630.61
2023-05-17T05:37:45.481Z,100627.30
2023-05-17T05:38:52.998Z,100634.73
2023-05-17T05:39:57.895Z,100638.84
2023-05-17T05:41:02.893Z,100636.30
2023-05-17T05:42:07.883Z,100629.41
2023-05-17T05:43:12.559Z,100630.19
2023-05-17T05:44:19.494Z,100626.63
2023-05-17T05:45:24.920Z,100634.59
2023-05-17T05:46:30.595Z,100639.95
2023-05-17T05:47:35.390Z,100639.72
2023-05-17T05:48:41.247Z,100639.45
2023-05-17T05:49:46.137Z,100653.77
2023-05-17T05:50:51.939Z,100648.92
2023-05-17T05:51:57.167Z,100650.25
2023-05-17T05:53:17.424Z,100650.28
2023-05-17T05:54:10.704Z,100655.39
2023-05-17T05:55:15.758Z,100652.34
2023-05-17T05:56:20.837Z,100651.59
2023-05-17T05:57:25.567Z,100652.10
2023-05-17T05:58:30.603Z,100649.29
2023-05-17T05:59:35.168Z,100660.30
2023-05-17T06:00:40.962Z,100649.31
2023-05-17T06:01:46.127Z,100649.58
2023-05-17T06:02:51.552Z,100641.63
2023-05-17T06:03:56.180Z,100652.12
2023-05-17T06:05:01.246Z,100648.53
2023-05-17T06:06:07.175Z,100646.75
2023-05-17T06:07:12.051Z,100645.22
2023-05-17T06:08:19.228Z,100648.05
2023-05-17T06:09:23.898Z,100660.84
2023-05-17T06:10:28.848Z,100654.47
2023-05-17T06:12:55.248Z,100647.31
2023-05-17T06:15:11.320Z,100644.23
2023-05-17T06:16:16.240Z,100645.02
2023-05-17T06:17:21.330Z,100645.77
2023-05-17T06:18:27.436Z,100650.91
2023-05-17T06:19:32.611Z,100655.01
2023-05-17T06:20:37.279Z,100648.87
2023-05-17T06:21:41.971Z,100650.41
2023-05-17T06:22:46.815Z,100651.70
2023-05-17T06:23:50.485Z,100651.70
2023-05-17T06:24:54.958Z,100657.59
2023-05-17T06:26:05.896Z,100652.98
2023-05-17T06:27:10.616Z,100656.80
2023-05-17T06:28:15.389Z,100663.20
2023-05-17T06:29:20.165Z,100651.17
2023-05-17T06:30:24.675Z,100661.65
2023-05-17T06:31:29.465Z,100658.83
2023-05-17T06:32:34.800Z,100661.13
2023-05-17T06:33:39.587Z,100658.83
2023-05-17T06:34:44.323Z,100660.06
2023-05-17T06:35:57.280Z,100656.73
2023-05-17T06:36:55.916Z,100664.89
2023-05-17T06:37:58.153Z,100661.05
2023-05-17T06:39:03.210Z,100667.92
2023-05-17T06:40:15.402Z,100664.58
2023-05-17T06:41:15.505Z,100661.73
2023-05-17T06:42:20.984Z,100655.06
2023-05-17T06:43:25.961Z,100658.65
2023-05-17T06:44:30.643Z,100655.27
2023-05-17T06:45:35.896Z,100651.38
2023-05-17T06:46:42.955Z,100668.27
2023-05-17T06:47:48.473Z,100659.25
2023-05-17T06:48:52.994Z,100663.31
2023-05-17T06:49:58.099Z,100659.66
2023-05-17T06:51:02.973Z,100664.77
2023-05-17T06:52:09.056Z,100663.66
2023-05-17T06:53:13.685Z,100664.88
2023-05-17T06:54:21.773Z,100664.30
2023-05-17T06:55:26.444Z,100666.84
2023-05-17T06:56:28.913Z,100662.69
2023-05-17T06:57:33.954Z,100664.39
2023-05-17T06:58:38.553Z,100662.25
2023-05-17T06:59:43.679Z,100664.45
2023-05-17T07:00:49.166Z,100663.59
2023-05-17T07:01:54.326Z,100666.88
2023-05-17T07:02:59.131Z,100666.88
2023-05-17T07:04:04.381Z,100659.69
2023-05-17T07:05:09.917Z,100662.22
2023-05-17T07:06:15.154Z,100661.17
2023-05-17T07:07:19.773Z,100662.70
2023-05-17T07:08:24.912Z,100656.23
2023-05-17T07:10:30.313Z,100656.67
2023-05-17T07:11:33.487Z,100656.38
2023-05-17T07:12:35.718Z,100661.22
2023-05-17T07:13:40.150Z,100650.66
2023-05-17T07:14:42.877Z,100662.75
2023-05-17T07:15:45.667Z,100656.62
2023-05-17T07:16:49.999Z,100662.56
2023-05-17T07:17:55.019Z,100663.33
2023-05-17T07:19:00.062Z,100657.44
2023-05-17T07:20:04.937Z,100664.18
2023-05-17T07:21:09.321Z,100664.18
2023-05-17T07:22:14.504Z,100667.54
2023-05-17T07:23:19.144Z,100666.48
2023-05-17T07:24:24.496Z,100661.88
2023-05-17T07:25:29.492Z,100655.56
2023-05-17T07:26:34.584Z,100663.64
2023-05-17T07:27:39.847Z,100664.41
2023-05-17T07:28:45.103Z,100662.83
2023-05-17T07:29:56.423Z,100664.52
2023-05-17T07:31:04.022Z,100666.69
2023-05-17T07:32:09.551Z,100671.95
2023-05-17T07:33:14.383Z,100670.03
2023-05-17T07:34:21.937Z,100663.91
2023-05-17T07:35:26.437Z,100658.03
2023-05-17T07:36:32.099Z,100663.22
2023-05-17T07:37:37.337Z,100665.52
2023-05-17T07:38:41.809Z,100665.52
2023-05-17T07:39:46.327Z,100667.82
2023-05-17T07:40:50.945Z,100658.03
2023-05-17T07:41:55.700Z,100659.56
2023-05-17T07:43:00.788Z,100664.91
2023-05-17T07:44:06.043Z,100654.29
2023-05-17T07:45:14.331Z,100662.78
2023-05-17T07:46:19.391Z,100656.89
2023-05-17T07:47:24.483Z,100659.42
2023-05-17T07:48:29.252Z,100661.19
2023-05-17T07:49:38.705Z,100665.69
2023-05-17T07:50:46.671Z,100661.83
2023-05-17T07:51:51.955Z,100666.36
2023-05-17T07:52:57.222Z,100665.20
2023-05-17T07:54:02.282Z,100664.83
2023-05-17T07:55:08.449Z,100664.96
2023-05-17T07:56:13.938Z,100674.22
2023-05-17T07:57:19.213Z,100660.83
2023-05-17T07:58:24.092Z,100664.13
2023-05-17T07:59:29.080Z,100667.95
2023-05-17T08:00:34.247Z,100663.81
2023-05-17T08:01:39.015Z,100659.45
2023-05-17T08:02:44.119Z,100665.42
2023-05-17T08:03:49.210Z,100667.72
2023-05-17T08:04:53.873Z,100670.78
2023-05-17T08:05:58.820Z,100670.25
2023-05-17T08:07:04.941Z,100666.88
2023-05-17T08:08:10.009Z,100661.67
2023-05-17T08:09:15.181Z,100674.20
2023-05-17T08:10:17.945Z,100662.56
2023-05-17T08:11:23.652Z,100677.73
2023-05-17T08:12:28.523Z,100667.92
2023-05-17T08:13:33.636Z,100668.46
2023-05-17T08:14:38.804Z,100676.07
2023-05-17T08:15:43.878Z,100675.38
2023-05-17T08:16:46.579Z,100676.98
2023-05-17T08:17:53.313Z,100685.17
2023-05-17T08:18:58.323Z,100671.24
2023-05-17T08:20:02.707Z,100675.22
2023-05-17T08:21:07.740Z,100680.66
2023-05-17T08:22:12.833Z,100681.95
2023-05-17T08:23:18.035Z,100678.05
2023-05-17T08:24:21.352Z,100673.08
2023-05-17T08:25:26.503Z,100680.51
2023-05-17T08:26:31.952Z,100681.73
2023-05-17T08:27:36.689Z,100680.87
2023-05-17T08:28:41.397Z,100685.45
2023-05-17T08:29:46.001Z,100683.80
2023-05-17T08:30:53.076Z,100685.70
2023-05-17T08:31:57.790Z,100676.52
2023-05-17T08:33:02.492Z,100681.81
2023-05-17T08:34:07.950Z,100685.78
2023-05-17T08:35:13.114Z,100678.59
2023-05-17T08:36:18.888Z,100677.29
2023-05-17T08:37:21.311Z,100672.92
2023-05-17T08:38:26.249Z,100676.29
2023-05-17T08:39:30.804Z,100684.25
2023-05-17T08:40:35.484Z,100684.25
2023-05-17T08:41:41.212Z,100676.22
2023-05-17T08:42:45.967Z,100685.41
2023-05-17T08:43:51.305Z,100676.83
2023-05-17T08:44:56.732Z,100684.48
2023-05-17T08:46:01.466Z,100681.58
2023-05-17T08:47:06.513Z,100682.80
2023-05-17T08:48:11.351Z,100688.37
2023-05-17T08:49:16.309Z,100682.16
2023-05-17T08:50:21.765Z,100685.10
2023-05-17T08:51:26.545Z,100683.88
2023-05-17T08:53:44.941Z,100688.37
2023-05-17T08:54:50.117Z,100677.67
2023-05-17T08:55:55.639Z,100685.94
2023-05-17T08:57:01.874Z,100685.70
2023-05-17T08:58:07.201Z,100687.47
2023-05-17T08:59:12.062Z,100682.80
2023-05-17T09:00:19.552Z,100689.13
2023-05-17T09:01:26.614Z,100680.25
2023-05-17T09:02:32.622Z,100680.71
2023-05-17T09:04:45.535Z,100679.10
2023-05-17T09:05:52.095Z,100683.16
2023-05-17T09:06:56.780Z,100682.93
2023-05-17T09:07:59.328Z,100678.49
2023-05-17T09:09:04.650Z,100681.63
2023-05-17T09:10:10.505Z,100678.03
2023-05-17T09:11:15.393Z,100681.17
2023-05-17T09:12:20.126Z,100684.77
2023-05-17T09:13:25.311Z,100677.27
2023-05-17T09:14:33.276Z,100681.02
2023-05-17T09:15:38.340Z,100673.23
2023-05-17T09:16:43.743Z,100673.12
2023-05-17T09:17:53.799Z,100672.59
2023-05-17T09:18:57.572Z,100679.25
2023-05-17T09:20:02.830Z,100686.68
2023-05-17T09:21:07.493Z,100679.40
2023-05-17T09:22:12.111Z,100679.28
2023-05-17T09:24:31.693Z,100681.30
2023-05-17T09:25:38.605Z,100688.27
2023-05-17T09:26:48.416Z,100679.59
2023-05-17T09:29:03.631Z,100681.13
2023-05-17T09:30:10.907Z,100680.26
2023-05-17T09:31:17.748Z,100679.81
2023-05-17T09:32:22.873Z,100684.72
2023-05-17T09:33:28.139Z,100683.09
2023-05-17T09:34:32.898Z,100674.23
2023-05-17T09:35:38.269Z,100686.58
2023-05-17T09:37:51.701Z,100673.53
2023-05-17T09:39:02.908Z,100664.80
2023-05-17T09:40:09.957Z,100671.69
2023-05-17T09:41:14.791Z,100675.95
2023-05-17T09:42:20.070Z,100666.22
2023-05-17T09:43:29.856Z,100674.84
2023-05-17T09:44:32.249Z,100669.80
2023-05-17T09:45:37.965Z,100671.33
2023-05-17T09:46:47.337Z,100670.56
2023-05-17T09:47:53.684Z,100669.25
2023-05-17T09:48:58.144Z,100669.03
2023-05-17T09:50:01.521Z,100667.75
2023-05-17T09:51:08.279Z,100672.77
2023-05-17T09:52:15.063Z,100674.52
2023-05-17T09:53:31.518Z,100677.77
2023-05-17T09:54:39.460Z,100674.94
2023-05-17T09:55:44.783Z,100673.19
2023-05-17T09:56:57.660Z,100665.10
2023-05-17T09:58:05.762Z,100668.27
2023-05-17T10:00:23.389Z,100663.03
2023-05-17T10:01:31.614Z,100665.00
2023-05-17T10:02:36.992Z,100665.33
2023-05-17T10:03:42.060Z,100667.95
2023-05-17T10:04:47.223Z,100672.75
2023-05-17T10:05:53.694Z,100657.47
2023-05-17T10:06:58.615Z,100666.53
2023-05-17T10:08:03.384Z,100665.22
2023-05-17T10:09:09.149Z,100657.47
2023-05-17T10:10:14.317Z,100667.18
2023-05-17T10:11:19.272Z,100663.03
2023-05-17T10:12:25.696Z,100660.08
2023-05-17T10:13:34.653Z,100665.31
2023-05-17T10:14:39.759Z,100663.86
2023-05-17T10:15:44.989Z,100660.90
2023-05-17T10:16:48.628Z,100661.11
2023-05-17T10:17:55.749Z,100660.45
2023-05-17T10:19:00.959Z,100662.73
2023-05-17T10:20:05.916Z,100663.19
2023-05-17T10:21:09.838Z,100658.82
2023-05-17T10:22:23.368Z,100654.55
2023-05-17T10:23:21.576Z,100660.45
2023-05-17T10:24:26.289Z,100660.66
2023-05-17T10:25:28.949Z,100660.84
2023-05-17T10:26:34.987Z,100655.74
2023-05-17T10:27:39.719Z,100653.02
2023-05-17T10:28:45.239Z,100655.09
2023-05-17T10:29:50.941Z,100654.98
2023-05-17T10:30:55.980Z,100652.69
2023-05-17T10:32:01.110Z,100653.85
2023-05-17T10:33:03.521Z,100661.37
2023-05-17T10:34:08.449Z,100651.45
2023-05-17T10:35:14.848Z,100655.02
2023-05-17T10:36:19.786Z,100653.64
2023-05-17T10:37:24.960Z,100653.34
2023-05-17T10:38:41.986Z,100651.54
2023-05-17T10:39:36.781Z,100659.91
2023-05-17T10:40:42.230Z,100653.87
2023-05-17T10:41:48.679Z,100652.75
2023-05-17T10:42:54.813Z,100654.34
2023-05-17T10:43:59.969Z,100655.38
2023-05-17T10:45:05.287Z,100653.52
2023-05-17T10:46:15.380Z,100646.56
2023-05-17T10:47:19.636Z,100648.14
2023-05-17T10:48:22.260Z,100647.39
2023-05-17T10:49:28.456Z,100651.20
2023-05-17T10:50:33.336Z,100653.70
2023-05-17T10:51:41.448Z,100641.75
2023-05-17T10:52:50.264Z,100643.47
2023-05-17T10:54:12.586Z,100646.28
2023-05-17T10:56:36.545Z,100639.81
2023-05-17T10:58:47.340Z,100638.83
2023-05-17T11:00:00.860Z,100636.56
2023-05-17T11:01:06.258Z,100633.20
2023-05-17T11:02:11.959Z,100634.74
2023-05-17T11:04:36.698Z,100639.79
2023-05-17T11:05:43.064Z,100643.20
2023-05-17T11:06:48.394Z,100636.94
2023-05-17T11:07:51.102Z,100634.28
2023-05-17T11:09:17.377Z,100642.80
2023-05-17T11:10:20.434Z,100642.03
2023-05-17T11:11:25.618Z,100638.42
2023-05-17T11:12:49.849Z,100642.03
2023-05-17T11:13:56.592Z,100637.30
2023-05-17T11:15:04.180Z,100641.87
2023-05-17T11:16:08.658Z,100637.50
2023-05-17T11:17:18.817Z,100640.71
2023-05-17T11:18:30.670Z,100642.27
2023-05-17T11:19:31.021Z,100641.73
2023-05-17T11:20:36.476Z,100643.06
2023-05-17T11:21:46.694Z,100635.11
2023-05-17T11:22:57.719Z,100638.55
2023-05-17T11:24:04.938Z,100634.73
2023-05-17T11:25:09.943Z,100636.45
2023-05-17T11:27:27.375Z,100629.66
2023-05-17T11:28:32.646Z,100629.84
2023-05-17T11:29:39.580Z,100638.22
2023-05-17T11:30:44.488Z,100635.92
2023-05-17T11:33:17.246Z,100628.31
2023-05-17T11:34:13.216Z,100626.80
2023-05-17T11:35:19.676Z,100632.12
2023-05-17T11:36:25.506Z,100628.47
2023-05-17T11:37:29.492Z,100630.16
2023-05-17T11:38:34.618Z,100629.40
2023-05-17T11:39:40.231Z,100630.56
2023-05-17T11:40:46.179Z,100622.58
2023-05-17T11:41:55.483Z,100635.70
2023-05-17T11:43:17.016Z,100629.03
2023-05-17T11:44:24.448Z,100623.87
2023-05-17T11:45:29.633Z,100629.55
2023-05-17T11:46:34.641Z,100627.43
2023-05-17T11:48:52.831Z,100627.43
2023-05-17T11:49:58.239Z,100626.27
2023-05-17T11:51:04.062Z,100626.95
2023-05-17T11:52:09.255Z,100630.37
2023-05-17T11:53:14.519Z,100630.37
2023-05-17T11:54:19.216Z,100622.78
2023-05-17T11:56:43.727Z,100626.66
2023-05-17T11:57:46.904Z,100628.91
2023-05-17T11:58:55.841Z,100634.45
2023-05-17T12:00:01.954Z,100627.78
2023-05-17T12:01:06.302Z,100627.52
2023-05-17T12:02:11.564Z,100625.38
2023-05-17T12:03:19.967Z,100625.53
2023-05-17T12:04:30.647Z,100621.50
2023-05-17T12:05:35.421Z,100615.96
2023-05-17T12:06:40.219Z,100611.01
2023-05-17T12:07:45.109Z,100616.30
2023-05-17T12:08:50.318Z,100615.68
2023-05-17T12:09:55.476Z,100617.91
2023-05-17T12:11:00.735Z,100617.91
2023-05-17T12:12:07.990Z,100619.44
2023-05-17T12:13:12.971Z,100617.15
2023-05-17T12:14:18.604Z,100619.99
2023-05-17T12:15:23.624Z,100618.27
2023-05-17T12:16:28.191Z,100610.84
2023-05-17T12:17:33.413Z,100612.30
2023-05-17T12:18:43.104Z,100607.34
2023-05-17T12:19:46.322Z,100614.50
2023-05-17T12:20:56.295Z,100612.41
2023-05-17T12:22:11.268Z,100611.86
2023-05-17T12:23:16.614Z,100615.47
2023-05-17T12:24:21.625Z,100611.86
2023-05-17T12:25:27.472Z,100613.94
2023-05-17T12:26:32.458Z,100608.25
2023-05-17T12:27:37.697Z,100607.08
2023-05-17T12:28:43.960Z,100603.81
2023-05-17T12:29:48.828Z,100604.75
2023-05-17T12:30:54.879Z,100604.81
2023-05-17T12:31:59.224Z,100603.66
2023-05-17T12:33:04.613Z,100606.50
2023-05-17T12:34:09.179Z,100597.60
2023-05-17T12:35:14.747Z,100602.94
2023-05-17T12:36:20.515Z,100596.50
2023-05-17T12:37:25.641Z,100592.89
2023-05-17T12:38:30.240Z,100596.84
2023-05-17T12:39:35.520Z,100597.60
2023-05-17T12:40:43.532Z,100596.28
2023-05-17T12:46:21.840Z,100591.42
2023-05-17T12:47:28.001Z,100588.66
2023-05-17T12:48:34.402Z,100593.92
2023-05-17T12:50:50.313Z,100587.14
2023-05-17T12:51:55.537Z,100591.42
2023-05-17T12:53:01.781Z,100589.34
2023-05-17T12:54:07.264Z,100587.14
2023-05-17T12:55:12.759Z,100589.22
2023-05-17T12:56:18.719Z,100594.69
2023-05-17T12:57:23.833Z,100583.45
2023-05-17T12:58:26.682Z,100591.42
2023-05-17T12:59:29.128Z,100584.98
2023-05-17T13:00:35.883Z,100586.84
2023-05-17T13:04:20.534Z,100582.48
2023-05-17T13:05:25.543Z,100575.00
2023-05-17T13:06:30.121Z,100582.21
2023-05-17T13:07:32.435Z,100589.08
2023-05-17T13:08:37.379Z,100582.64
2023-05-17T13:09:46.993Z,100582.98
2023-05-17T13:10:49.445Z,100587.68
2023-05-17T13:12:05.467Z,100590.31